Time;durP1;ratioP1;P1;durP2;ratioP2;P2;SDS_P1;SDS_P2;PMS_P1;PMS_P2;Temp;Humidity;BMP_temperature;BMP_pressure;BME280_temperature;BME280_humidity;BME280_pressure;Samples;Min_cycle;Max_cycle;Signal;HPM_P1;HPM_P2
2021/10/13 00:00:32;;;;;;;16.83;12.25;;;11.60;99.90;;;;;;5066176;28;20063;-47
2021/10/13 00:02:58;;;;;;;15.80;12.88;;;11.60;99.90;;;;;;5033696;28;20506;-47
2021/10/13 00:05:24;;;;;;;19.15;12.88;;;11.60;99.90;;;;;;5031803;28;20040;-46
2021/10/13 00:07:49;;;;;;;18.38;12.77;;;11.60;99.90;;;;;;5049395;28;20074;-47
2021/10/13 00:10:15;;;;;;;18.70;12.70;;;11.50;99.90;;;;;;5065610;28;20016;-47
2021/10/13 00:12:41;;;;;;;16.88;12.95;;;11.60;99.90;;;;;;5069562;28;20044;-46
2021/10/13 00:15:10;;;;;;;15.73;12.60;;;11.60;99.90;;;;;;5069601;28;20032;-46
2021/10/13 00:17:37;;;;;;;19.15;16.27;;;11.60;99.90;;;;;;5016491;28;20032;-47
2021/10/13 00:20:05;;;;;;;24.88;20.00;;;11.50;99.90;;;;;;5062725;28;20040;-47
2021/10/13 00:22:30;;;;;;;31.00;24.17;;;11.50;99.90;;;;;;5037806;28;20044;-46
2021/10/13 00:24:56;;;;;;;39.20;29.73;;;11.50;99.90;;;;;;5066100;28;20025;-47
2021/10/13 00:27:22;;;;;;;41.38;34.55;;;11.50;99.90;;;;;;5063976;28;20097;-46
2021/10/13 00:29:48;;;;;;;42.38;34.05;;;11.50;99.90;;;;;;5068191;28;20032;-47
2021/10/13 00:32:13;;;;;;;31.40;26.25;;;11.50;99.90;;;;;;5072977;28;20027;-47
2021/10/13 00:34:39;;;;;;;31.65;23.38;;;11.50;99.90;;;;;;5067994;28;20077;-46
2021/10/13 00:37:05;;;;;;;20.17;14.82;;;11.40;99.90;;;;;;5034236;28;20050;-47
2021/10/13 00:39:31;;;;;;;18.02;13.73;;;11.40;99.90;;;;;;5070101;28;20116;-47
2021/10/13 00:41:57;;;;;;;16.73;12.38;;;11.40;99.90;;;;;;5030196;28;20128;-47
2021/10/13 00:44:22;;;;;;;16.70;12.70;;;11.40;99.90;;;;;;5070963;28;20056;-46
2021/10/13 00:46:48;;;;;;;13.43;10.43;;;11.40;99.90;;;;;;5035141;28;20380;-46
2021/10/13 00:49:14;;;;;;;18.25;12.68;;;11.30;99.90;;;;;;5070093;28;20047;-48
2021/10/13 00:51:40;;;;;;;17.17;12.43;;;11.30;99.90;;;;;;5046439;28;20120;-47
2021/10/13 00:54:08;;;;;;;18.05;13.35;;;11.20;99.90;;;;;;5070197;28;20028;-47
2021/10/13 00:56:33;;;;;;;20.05;13.02;;;11.10;99.90;;;;;;5068267;28;20032;-46
2021/10/13 00:58:59;;;;;;;18.85;14.32;;;11.10;99.90;;;;;;5065657;28;20028;-47
2021/10/13 01:01:31;;;;;;;17.40;13.00;;;11.20;99.90;;;;;;5070638;28;20040;-46
2021/10/13 01:04:23;;;;;;;16.23;12.38;;;11.10;99.90;;;;;;5061500;28;20033;-47
2021/10/13 01:07:17;;;;;;;14.75;11.85;;;11.00;99.90;;;;;;5068163;28;20060;-47
2021/10/13 01:09:53;;;;;;;16.88;12.25;;;11.00;99.90;;;;;;5066128;28;20043;-46
2021/10/13 01:12:22;;;;;;;17.33;12.70;;;11.00;99.90;;;;;;5060397;28;20060;-47
2021/10/13 01:14:59;;;;;;;16.80;12.98;;;11.00;99.90;;;;;;5069522;28;20029;-46
2021/10/13 01:17:51;;;;;;;15.35;12.18;;;11.00;99.90;;;;;;5068398;28;20043;-46
2021/10/13 01:20:39;;;;;;;17.00;12.30;;;11.10;99.90;;;;;;4973208;28;20052;-46
2021/10/13 01:23:26;;;;;;;17.33;12.32;;;11.00;99.90;;;;;;4976112;28;20046;-47
2021/10/13 01:26:14;;;;;;;18.52;12.38;;;11.00;99.90;;;;;;4979059;28;20047;-46
2021/10/13 01:28:44;;;;;;;18.05;12.60;;;11.00;99.90;;;;;;4972300;28;20030;-47
2021/10/13 01:31:18;;;;;;;15.93;12.35;;;10.90;99.90;;;;;;4976637;28;20097;-47
2021/10/13 01:33:59;;;;;;;16.42;12.20;;;10.90;99.90;;;;;;4972773;28;20042;-47
2021/10/13 01:36:43;;;;;;;18.35;13.23;;;10.80;99.90;;;;;;4974421;28;20035;-47
2021/10/13 01:39:10;;;;;;;20.73;15.43;;;10.80;99.90;;;;;;4973587;28;20027;-47
2021/10/13 01:41:38;;;;;;;18.85;12.88;;;10.90;99.90;;;;;;4971780;28;20113;-46
2021/10/13 01:44:05;;;;;;;16.17;12.43;;;10.70;99.90;;;;;;4981335;28;20096;-47
2021/10/13 01:46:32;;;;;;;16.55;12.00;;;10.70;99.90;;;;;;4974209;28;20034;-47
2021/10/13 01:49:02;;;;;;;17.48;12.88;;;10.70;99.90;;;;;;4980532;28;20019;-47
2021/10/13 01:51:29;;;;;;;16.08;12.02;;;10.70;99.90;;;;;;4960865;28;20053;-47
2021/10/13 01:53:56;;;;;;;16.17;12.48;;;10.70;99.90;;;;;;4980225;28;20551;-47
2021/10/13 01:56:25;;;;;;;16.75;12.50;;;10.70;99.90;;;;;;4985347;28;20032;-47
2021/10/13 01:58:55;;;;;;;16.90;12.35;;;10.70;99.90;;;;;;5029064;28;20132;-47
2021/10/13 02:01:28;;;;;;;15.10;12.05;;;10.80;99.90;;;;;;5028854;28;20045;-47
2021/10/13 02:04:00;;;;;;;17.00;11.77;;;10.80;99.90;;;;;;4979940;28;20519;-47
2021/10/13 02:06:26;;;;;;;;;;;10.80;99.90;;;;;;5029484;28;20040;-47
2021/10/13 02:08:53;;;;;;;16.60;11.88;;;10.80;99.90;;;;;;5021852;28;19920;-47
2021/10/13 02:11:23;;;;;;;15.35;11.65;;;10.80;99.90;;;;;;4999335;28;20042;-47
2021/10/13 02:13:51;;;;;;;17.27;11.55;;;10.90;99.90;;;;;;5032571;28;20045;-47
2021/10/13 02:16:18;;;;;;;15.23;11.88;;;10.90;99.90;;;;;;5032635;28;20072;-46
2021/10/13 02:18:45;;;;;;;14.68;12.00;;;10.90;99.90;;;;;;5033135;28;20064;-46
2021/10/13 02:21:13;;;;;;;13.98;11.18;;;10.90;99.90;;;;;;5016054;28;20076;-46
2021/10/13 02:23:40;;;;;;;16.30;12.50;;;11.00;99.90;;;;;;5027050;28;20132;-47
2021/10/13 02:26:17;;;;;;;17.88;12.20;;;11.00;99.90;;;;;;5027844;28;20022;-47
2021/10/13 02:28:48;;;;;;;16.52;12.00;;;11.00;99.90;;;;;;5034746;28;20037;-47
2021/10/13 02:31:14;;;;;;;14.20;11.88;;;11.10;99.90;;;;;;5053832;28;20044;-47
2021/10/13 02:33:40;;;;;;;16.77;11.27;;;11.10;99.90;;;;;;5039244;28;20115;-47
2021/10/13 02:36:06;;;;;;;14.00;10.70;;;11.10;99.90;;;;;;5067914;28;20112;-47
2021/10/13 02:38:32;;;;;;;15.10;11.70;;;10.90;99.90;;;;;;5036635;28;20041;-47
2021/10/13 02:40:59;;;;;;;18.95;13.00;;;10.80;99.90;;;;;;5069340;28;20040;-47
2021/10/13 02:43:24;;;;;;;18.52;12.23;;;10.80;99.90;;;;;;5068469;28;20059;-47
2021/10/13 02:46:24;;;;;;;17.48;12.48;;;10.70;99.90;;;;;;5069376;28;20614;-46
2021/10/13 02:48:58;;;;;;;16.45;12.45;;;10.80;99.90;;;;;;4996049;28;20133;-47
2021/10/13 02:51:33;;;;;;;17.15;12.70;;;10.80;99.90;;;;;;5004891;28;20036;-47
2021/10/13 02:54:16;;;;;;;14.30;10.73;;;10.90;99.90;;;;;;4991346;28;20038;-47
2021/10/13 02:56:48;;;;;;;17.40;11.82;;;11.00;99.90;;;;;;5007627;28;20100;-46
2021/10/13 02:59:22;;;;;;;14.20;11.77;;;10.90;99.90;;;;;;5006950;28;20137;-46
2021/10/13 03:01:51;;;;;;;15.43;11.35;;;10.80;99.90;;;;;;4995945;28;20022;-46
2021/10/13 03:04:20;;;;;;;17.90;12.27;;;10.80;99.90;;;;;;5009307;28;20038;-46
2021/10/13 03:06:54;;;;;;;14.85;11.90;;;10.80;99.90;;;;;;5007512;28;20484;-46
2021/10/13 03:09:21;;;;;;;14.88;11.25;;;10.80;99.90;;;;;;4988647;28;20035;-49
2021/10/13 03:11:50;;;;;;;16.35;10.93;;;10.70;99.90;;;;;;4995611;28;20060;-47
2021/10/13 03:14:22;;;;;;;18.90;11.30;;;10.60;99.90;;;;;;5006226;28;20048;-46
2021/10/13 03:16:51;;;;;;;14.52;11.65;;;10.60;99.90;;;;;;5009711;28;20485;-47
2021/10/13 03:19:20;;;;;;;14.30;11.35;;;10.60;99.90;;;;;;4995208;28;20053;-46
2021/10/13 03:21:48;;;;;;;16.38;11.38;;;10.50;99.90;;;;;;5003961;28;20030;-46
2021/10/13 03:24:18;;;;;;;13.38;11.18;;;10.50;99.90;;;;;;5014146;28;20173;-48
2021/10/13 03:26:48;;;;;;;14.50;10.63;;;10.50;99.90;;;;;;5064273;28;20029;-46
2021/10/13 03:29:14;;;;;;;14.63;10.23;;;10.50;99.90;;;;;;5073584;28;20691;-46
2021/10/13 03:31:40;;;;;;;15.57;10.80;;;10.40;99.90;;;;;;5033459;28;20151;-47
2021/10/13 03:34:07;;;;;;;13.88;11.13;;;10.50;99.90;;;;;;5062012;28;20021;-47
2021/10/13 03:36:47;;;;;;;15.02;10.05;;;10.40;99.90;;;;;;4997780;28;20476;-46
2021/10/13 03:39:14;;;;;;;11.55;10.02;;;10.40;99.90;;;;;;5072998;28;20464;-46
2021/10/13 03:41:42;;;;;;;16.70;10.60;;;10.30;99.90;;;;;;5066911;28;20488;-47
2021/10/13 03:44:07;;;;;;;13.85;10.45;;;10.20;99.90;;;;;;5073655;28;20035;-47
2021/10/13 03:46:34;;;;;;;12.85;10.23;;;10.00;99.90;;;;;;5069628;28;20115;-47
2021/10/13 03:49:00;;;;;;;13.85;10.32;;;10.10;99.90;;;;;;5050427;28;20047;-46
2021/10/13 03:51:26;;;;;;;15.13;11.20;;;10.10;99.90;;;;;;5067932;28;20025;-47
2021/10/13 03:53:52;;;;;;;18.70;12.02;;;10.10;99.90;;;;;;5071811;28;20032;-47
2021/10/13 03:56:18;;;;;;;18.75;12.73;;;10.10;99.90;;;;;;5004562;28;20082;-47
2021/10/13 03:58:45;;;;;;;18.33;12.60;;;10.00;99.90;;;;;;5066721;28;20499;-47
2021/10/13 04:01:12;;;;;;;21.75;13.05;;;9.90;99.90;;;;;;5069628;28;20487;-48
2021/10/13 04:03:39;;;;;;;21.60;13.20;;;9.80;99.90;;;;;;5072535;28;20040;-46
2021/10/13 04:06:05;;;;;;;19.52;13.43;;;9.80;99.90;;;;;;5070303;28;20490;-47
2021/10/13 04:22:07;;;;;;;16.67;12.13;;;12.80;99.90;;;;;;5063932;28;20386;-46
2021/10/13 04:24:33;;;;;;;17.90;11.95;;;9.70;99.90;;;;;;5050449;28;20039;-46
2021/10/13 04:26:59;;;;;;;15.55;11.95;;;9.70;99.90;;;;;;5050184;28;20064;-46
2021/10/13 04:29:25;;;;;;;19.63;11.73;;;9.80;99.90;;;;;;5050601;28;20028;-46
2021/10/13 04:31:51;;;;;;;13.88;11.38;;;9.80;99.90;;;;;;5049765;28;20421;-46
2021/10/13 04:34:16;;;;;;;14.80;11.05;;;9.80;99.90;;;;;;5011055;28;20033;-46
2021/10/13 04:36:42;;;;;;;16.35;11.30;;;9.70;99.90;;;;;;5011554;28;20124;-45
2021/10/13 04:39:08;;;;;;;16.40;11.50;;;9.70;99.90;;;;;;5015625;28;20128;-46
2021/10/13 04:41:33;;;;;;;14.70;11.02;;;9.60;99.90;;;;;;5049671;28;20032;-45
2021/10/13 04:44:00;;;;;;;15.90;11.15;;;9.60;99.90;;;;;;5013255;28;20045;-46
2021/10/13 04:46:26;;;;;;;21.73;11.68;;;9.60;99.90;;;;;;5048837;28;20104;-46
2021/10/13 04:48:52;;;;;;;15.45;11.20;;;9.70;99.90;;;;;;5048618;28;20033;-46
2021/10/13 04:51:17;;;;;;;22.88;15.35;;;9.70;99.90;;;;;;5003675;28;20553;-46
2021/10/13 04:53:43;;;;;;;21.83;13.98;;;9.70;99.90;;;;;;4997315;28;20149;-46
2021/10/13 04:56:09;;;;;;;20.15;14.63;;;9.70;99.90;;;;;;5001813;28;20123;-46
2021/10/13 04:58:35;;;;;;;19.27;14.45;;;9.70;99.90;;;;;;4967428;28;20034;-45
2021/10/13 05:01:00;;;;;;;28.77;19.30;;;9.70;99.90;;;;;;4947135;29;20044;-46
2021/10/13 05:03:26;;;;;;;21.73;16.92;;;9.80;99.90;;;;;;4947773;29;20040;-46
2021/10/13 05:05:52;;;;;;;22.27;17.08;;;9.80;99.90;;;;;;4947233;29;20054;-46
2021/10/13 05:08:18;;;;;;;17.50;12.50;;;9.80;99.90;;;;;;4947350;29;20537;-46
2021/10/13 05:10:43;;;;;;;17.50;11.13;;;9.80;99.90;;;;;;4931647;29;20043;-46
2021/10/13 05:13:09;;;;;;;18.08;11.98;;;9.70;99.90;;;;;;4947157;29;20035;-46
2021/10/13 05:15:35;;;;;;;14.30;11.07;;;9.80;99.90;;;;;;4946904;29;20073;-45
2021/10/13 05:18:01;;;;;;;14.75;11.57;;;9.70;99.90;;;;;;4947115;29;20042;-46
2021/10/13 05:20:27;;;;;;;18.80;12.48;;;9.70;99.90;;;;;;4946420;29;20056;-45
2021/10/13 05:22:53;;;;;;;18.95;12.38;;;9.80;99.90;;;;;;4964778;28;20035;-46
2021/10/13 05:25:19;;;;;;;23.52;17.20;;;9.80;99.90;;;;;;4967637;28;20125;-45
2021/10/13 05:27:45;;;;;;;30.33;22.70;;;9.80;99.90;;;;;;4956825;28;20038;-46
2021/10/13 05:30:11;;;;;;;29.25;19.90;;;9.80;99.90;;;;;;4972964;28;20594;-46
2021/10/13 05:32:36;;;;;;;22.92;15.45;;;9.80;99.90;;;;;;5019067;28;20055;-45
2021/10/13 05:35:02;;;;;;;22.10;16.60;;;9.80;99.90;;;;;;4984007;28;20182;-46
2021/10/13 06:46:08;;;;;;;15.85;11.60;;;10.40;99.90;;;;;;5120501;27;20818;-47
2021/10/13 06:48:33;;;;;;;17.58;11.35;;;11.00;99.90;;;;;;5111702;28;20111;-47
2021/10/13 06:50:59;;;;;;;13.23;10.35;;;11.00;99.90;;;;;;5102867;28;20060;-47
2021/10/13 06:53:26;;;;;;;18.73;11.45;;;11.00;99.90;;;;;;5110220;28;20016;-47
2021/10/13 06:55:53;;;;;;;14.32;9.80;;;11.00;99.90;;;;;;5112956;28;20020;-47
2021/10/13 06:58:18;;;;;;;13.80;9.32;;;10.80;99.90;;;;;;5109203;28;20439;-46
2021/10/13 07:00:44;;;;;;;20.02;11.88;;;10.90;99.90;;;;;;5108863;28;20073;-45
2021/10/13 07:03:10;;;;;;;16.80;10.25;;;11.00;99.90;;;;;;5083312;28;20474;-47
2021/10/13 07:05:36;;;;;;;19.13;9.77;;;10.90;99.90;;;;;;5111104;28;20356;-48
2021/10/13 07:08:02;;;;;;;14.35;8.35;;;11.10;99.90;;;;;;5111198;28;20485;-45
2021/10/13 07:10:28;;;;;;;17.17;8.82;;;11.10;99.90;;;;;;5108803;28;20463;-44
2021/10/13 07:12:54;;;;;;;15.55;9.30;;;11.00;99.90;;;;;;5081659;28;20035;-45
2021/10/13 07:15:21;;;;;;;12.43;7.53;;;11.10;99.90;;;;;;5075718;28;20377;-44
2021/10/13 07:17:48;;;;;;;15.75;9.05;;;11.00;99.90;;;;;;5111323;28;20485;-44
2021/10/13 07:20:14;;;;;;;13.52;10.38;;;11.20;99.90;;;;;;5059947;28;20039;-45
2021/10/13 07:22:40;;;;;;;16.60;9.27;;;11.50;99.90;;;;;;5071777;28;20036;-45
2021/10/13 07:25:07;;;;;;;15.57;9.20;;;11.60;99.90;;;;;;5112095;28;20031;-47
2021/10/13 07:27:34;;;;;;;15.80;8.73;;;11.60;99.90;;;;;;5091864;28;20034;-45
2021/10/13 07:30:01;;;;;;;12.95;9.25;;;11.60;99.90;;;;;;5111209;28;20028;-44
2021/10/13 07:32:32;;;;;;;12.85;9.15;;;11.80;99.90;;;;;;5109673;28;20042;-46
2021/10/13 07:34:58;;;;;;;12.02;9.35;;;11.80;99.90;;;;;;5108492;28;20063;-46
2021/10/13 07:37:24;;;;;;;10.65;7.72;;;12.00;99.90;;;;;;5091921;28;20024;-45
2021/10/13 07:39:51;;;;;;;11.10;9.23;;;12.20;99.90;;;;;;5109324;28;20023;-46
2021/10/13 07:42:18;;;;;;;10.38;7.10;;;12.40;99.90;;;;;;5109633;28;20016;-46
2021/10/13 07:44:44;;;;;;;11.38;9.05;;;12.30;99.90;;;;;;5059329;28;20509;-47
2021/10/13 07:47:11;;;;;;;13.73;9.35;;;12.40;99.90;;;;;;5101154;28;20054;-44
2021/10/13 07:49:38;;;;;;;13.27;9.40;;;12.50;99.90;;;;;;5096230;28;20561;-46
2021/10/13 07:52:05;;;;;;;13.10;10.07;;;12.80;99.90;;;;;;5097558;28;20032;-46
2021/10/13 07:54:31;;;;;;;14.13;9.07;;;13.10;99.90;;;;;;4995184;28;20466;-46
2021/10/13 07:56:57;;;;;;;12.80;9.27;;;13.30;99.90;;;;;;5098179;28;20032;-46
2021/10/13 07:59:22;;;;;;;11.90;9.38;;;13.40;99.90;;;;;;5095420;28;20099;-47
2021/10/13 08:01:48;;;;;;;12.98;8.95;;;13.70;99.90;;;;;;5048043;28;20031;-46
2021/10/13 08:04:14;;;;;;;14.25;10.30;;;14.00;99.90;;;;;;5062352;28;20088;-46
2021/10/13 08:06:40;;;;;;;11.32;9.15;;;14.40;99.90;;;;;;5057869;28;20079;-45
2021/10/13 08:09:06;;;;;;;11.68;9.77;;;14.80;99.90;;;;;;5097991;28;20459;-46
2021/10/13 08:11:32;;;;;;;11.95;8.52;;;15.10;99.90;;;;;;5043369;28;20394;-45
2021/10/13 08:13:58;;;;;;;11.85;9.43;;;15.40;99.90;;;;;;5100917;28;20047;-45
2021/10/13 08:16:24;;;;;;;17.75;10.05;;;15.40;99.90;;;;;;5043233;28;20399;-46
2021/10/13 08:18:50;;;;;;;9.52;8.45;;;16.00;99.90;;;;;;5093694;28;20020;-46
2021/10/13 08:21:16;;;;;;;13.02;9.48;;;16.30;99.90;;;;;;5058022;28;20067;-45
2021/10/13 08:23:42;;;;;;;13.27;9.88;;;16.70;99.90;;;;;;5092774;28;20036;-46
2021/10/13 08:26:07;;;;;;;10.43;9.05;;;17.20;99.90;;;;;;5071584;28;20035;-45
2021/10/13 08:28:35;;;;;;;11.88;9.18;;;17.50;99.90;;;;;;5094039;28;20032;-45
2021/10/13 08:31:01;;;;;;;9.63;8.25;;;18.20;99.90;;;;;;5091277;28;20028;-44
2021/10/13 08:33:27;;;;;;;14.18;9.27;;;18.10;99.90;;;;;;5039884;28;20523;-46
2021/10/13 08:35:52;;;;;;;12.63;8.52;;;18.70;99.90;;;;;;5037350;28;20648;-45
2021/10/13 08:38:18;;;;;;;8.77;7.30;;;19.40;99.90;;;;;;5023128;28;20159;-45
2021/10/13 08:40:44;;;;;;;8.82;7.85;;;19.30;99.90;;;;;;5028460;28;20077;-45
2021/10/13 08:43:10;;;;;;;9.77;7.88;;;19.70;99.90;;;;;;5026748;28;20032;-46
2021/10/13 08:45:38;;;;;;;8.13;6.13;;;19.10;99.90;;;;;;4974154;28;20052;-48
2021/10/13 08:48:05;;;;;;;9.30;7.45;;;19.40;99.90;;;;;;5003367;28;20050;-50
2021/10/13 08:50:34;;;;;;;10.45;7.75;;;19.70;99.90;;;;;;5040576;28;20381;-46
2021/10/13 08:53:21;;;;;;;12.85;7.38;;;19.20;99.90;;;;;;5033761;28;20547;-49
2021/10/13 08:55:48;;;;;;;9.60;8.15;;;18.90;99.90;;;;;;5024752;28;20046;-47
2021/10/13 08:58:15;;;;;;;10.27;7.68;;;19.30;99.90;;;;;;5026353;28;20021;-53
2021/10/13 09:00:46;;;;;;;10.23;9.13;;;20.00;99.90;;;;;;4993797;28;20038;-45
2021/10/13 09:03:31;;;;;;;9.85;7.65;;;20.20;99.90;;;;;;5032048;28;20076;-45
2021/10/13 09:06:19;;;;;;;8.70;7.80;;;19.60;99.90;;;;;;5036498;28;20037;-50
2021/10/13 09:08:57;;;;;;;6.82;5.43;;;21.10;99.90;;;;;;5091723;28;20364;-48
2021/10/13 09:11:36;;;;;;;9.23;7.13;;;20.10;99.90;;;;;;5089277;28;20090;-48
2021/10/13 09:14:14;;;;;;;9.95;6.78;;;19.00;99.90;;;;;;5087100;28;20652;-48
2021/10/13 09:16:51;;;;;;;9.52;7.63;;;17.70;99.90;;;;;;5061689;28;20032;-48
2021/10/13 09:19:18;;;;;;;8.45;6.65;;;17.00;99.90;;;;;;5093887;28;20073;-47
2021/10/13 09:21:53;;;;;;;9.68;7.50;;;16.20;99.90;;;;;;5065134;28;20052;-50
2021/10/13 09:24:20;;;;;;;8.80;6.38;;;15.90;99.90;;;;;;5033746;28;20439;-50
2021/10/13 09:26:46;;;;;;;8.35;6.85;;;15.80;99.90;;;;;;5060747;28;20390;-50
2021/10/13 09:29:12;;;;;;;8.77;5.13;;;15.90;99.90;;;;;;5038384;28;20033;-50
2021/10/13 09:31:38;;;;;;;7.55;5.70;;;16.20;99.90;;;;;;5099229;28;20024;-50
2021/10/13 09:34:09;;;;;;;9.07;5.70;;;16.10;99.90;;;;;;5093131;28;20043;-50
2021/10/13 09:36:43;;;;;;;12.52;7.15;;;15.60;99.90;;;;;;5032293;28;20148;-50
2021/10/13 09:39:17;;;;;;;7.47;5.18;;;15.50;99.90;;;;;;5022669;28;20123;-50
2021/10/13 09:42:03;;;;;;;7.75;5.28;;;15.00;99.90;;;;;;5033996;28;20041;-50
2021/10/13 09:44:35;;;;;;;8.98;5.00;;;14.80;99.90;;;;;;5016110;28;20072;-50
2021/10/13 09:47:03;;;;;;;;;;;14.60;99.90;;;;;;5001927;28;20515;-51
2021/10/13 09:49:37;;;;;;;12.25;6.63;;;14.40;99.90;;;;;;5016657;28;20004;-53
2021/10/13 09:52:09;;;;;;;8.77;7.20;;;14.50;99.90;;;;;;5010666;28;20029;-48
2021/10/13 09:54:35;;;;;;;7.72;6.22;;;14.40;99.90;;;;;;4996619;28;20046;-51
2021/10/13 09:57:25;;;;;;;14.10;8.40;;;14.50;99.90;;;;;;5034268;28;20029;-49
2021/10/13 10:00:25;;;;;;;8.10;7.07;;;14.50;99.90;;;;;;5037299;28;20534;-48
2021/10/13 10:02:58;;;;;;;8.82;6.22;;;14.40;99.90;;;;;;4951640;28;20098;-48
2021/10/13 10:05:29;;;;;;;10.82;6.88;;;14.30;99.90;;;;;;4950965;28;20089;-49
2021/10/13 10:08:10;;;;;;;12.67;10.53;;;14.10;99.90;;;;;;4976981;28;20061;-48
2021/10/13 10:10:38;;;;;;;10.38;8.10;;;14.20;99.90;;;;;;4990919;28;20022;-50
2021/10/13 10:13:11;;;;;;;14.00;9.10;;;14.50;99.90;;;;;;4992097;28;20038;-48
2021/10/13 10:15:47;;;;;;;10.75;8.38;;;14.40;99.90;;;;;;4985827;28;20034;-48
2021/10/13 10:18:31;;;;;;;12.45;8.77;;;13.50;99.90;;;;;;4994990;28;20100;-50
2021/10/13 10:21:39;;;;;;;13.55;9.25;;;13.10;99.90;;;;;;4998374;28;20042;-49
2021/10/13 10:24:24;;;;;;;10.35;6.93;;;12.80;99.90;;;;;;4997347;28;20034;-48
2021/10/13 10:26:49;;;;;;;13.73;9.85;;;12.50;99.90;;;;;;4997042;28;20053;-49
2021/10/13 10:29:17;;;;;;;13.43;9.68;;;12.60;99.90;;;;;;4992525;28;20026;-50
2021/10/13 10:31:53;;;;;;;13.77;8.88;;;12.70;99.90;;;;;;4996708;28;20031;-50
2021/10/13 10:34:21;;;;;;;9.40;7.15;;;12.80;99.90;;;;;;4997741;28;20034;-50
2021/10/13 10:36:47;;;;;;;9.77;7.55;;;12.80;99.90;;;;;;4994331;28;20034;-50
2021/10/13 10:39:17;;;;;;;10.98;6.80;;;12.80;99.90;;;;;;5025517;28;20115;-49
2021/10/13 10:41:54;;;;;;;12.90;8.63;;;12.80;99.90;;;;;;5055781;28;20040;-49
2021/10/13 10:44:33;;;;;;;13.02;7.78;;;13.00;99.90;;;;;;5091951;28;20075;-49
2021/10/13 10:47:12;;;;;;;26.33;14.45;;;12.90;99.90;;;;;;5091760;28;20027;-49
2021/10/13 10:49:46;;;;;;;11.52;5.78;;;12.90;99.90;;;;;;5091396;28;20081;-48
2021/10/13 10:52:22;;;;;;;25.20;13.60;;;12.90;99.90;;;;;;5096074;28;20085;-50
2021/10/13 10:54:57;;;;;;;11.80;6.60;;;13.20;99.90;;;;;;5091376;28;20055;-49
2021/10/13 10:57:39;;;;;;;7.57;5.30;;;13.30;99.90;;;;;;5086003;28;20348;-49
2021/10/13 11:00:23;;;;;;;15.57;10.88;;;13.40;99.90;;;;;;5090080;28;20119;-49
2021/10/13 11:02:50;;;;;;;6.57;4.40;;;13.70;99.90;;;;;;5063282;28;20032;-50
2021/10/13 11:05:20;;;;;;;10.93;7.28;;;13.40;99.90;;;;;;5060783;28;20428;-52
2021/10/13 11:07:48;;;;;;;13.75;8.35;;;13.30;99.90;;;;;;5093798;28;20107;-48
2021/10/13 11:10:14;;;;;;;13.93;8.13;;;13.40;99.90;;;;;;5097658;28;20474;-50
2021/10/13 11:12:52;;;;;;;17.40;11.40;;;14.40;99.90;;;;;;5085401;28;20028;-53
2021/10/13 11:15:24;;;;;;;11.52;7.47;;;15.00;99.90;;;;;;5088841;28;20036;-50
2021/10/13 11:17:50;;;;;;;6.57;5.35;;;14.90;99.90;;;;;;5088976;28;20536;-50
2021/10/13 11:20:20;;;;;;;17.98;9.30;;;15.50;99.90;;;;;;5077080;28;20050;-49
2021/10/13 11:22:58;;;;;;;10.38;7.32;;;15.70;99.90;;;;;;5099916;28;20031;-49
2021/10/13 11:25:25;;;;;;;14.88;10.02;;;15.90;99.90;;;;;;5096574;28;20020;-51
2021/10/13 11:28:01;;;;;;;13.90;8.85;;;15.90;99.90;;;;;;5095543;28;20023;-50
2021/10/13 11:30:29;;;;;;;8.95;5.32;;;15.60;99.90;;;;;;5095225;28;20024;-48
2021/10/13 11:32:56;;;;;;;8.63;6.35;;;15.30;99.90;;;;;;5099639;28;20024;-50
2021/10/13 11:35:22;;;;;;;12.90;6.68;;;14.70;99.90;;;;;;5090401;28;20383;-55
2021/10/13 11:37:50;;;;;;;9.98;5.72;;;14.30;99.90;;;;;;5095372;28;20020;-54
2021/10/13 11:40:17;;;;;;;6.57;5.35;;;13.80;99.90;;;;;;5059377;28;20032;-48
2021/10/13 11:42:44;;;;;;;8.20;4.68;;;13.60;99.90;;;;;;5095095;28;20031;-48
2021/10/13 11:45:21;;;;;;;13.35;6.72;;;13.50;99.90;;;;;;5095172;28;20083;-57
2021/10/13 11:47:47;;;;;;;8.90;4.28;;;13.40;99.90;;;;;;5050684;28;20044;-54
2021/10/13 11:50:19;;;;;;;15.60;9.68;;;13.10;99.90;;;;;;5095734;28;20103;-50
2021/10/13 11:52:57;;;;;;;9.80;6.50;;;13.00;99.90;;;;;;5091792;28;20035;-48
2021/10/13 11:55:26;;;;;;;16.83;9.05;;;12.90;99.90;;;;;;5092065;28;20043;-52
2021/10/13 11:57:57;;;;;;;4.72;4.00;;;12.90;99.90;;;;;;5055925;28;20042;-51
2021/10/13 12:00:25;;;;;;;11.77;7.63;;;12.80;99.90;;;;;;5091936;28;20028;-51
2021/10/13 12:03:06;;;;;;;5.82;3.55;;;12.70;99.90;;;;;;5040649;28;20351;-48
2021/10/13 12:05:38;;;;;;;6.95;4.07;;;12.50;99.90;;;;;;5094692;28;20052;-45
2021/10/13 12:08:07;;;;;;;4.50;3.28;;;12.50;99.90;;;;;;5093323;28;20109;-49
2021/10/13 12:10:54;;;;;;;15.63;10.65;;;12.30;99.90;;;;;;5092736;28;20066;-47
2021/10/13 12:13:27;;;;;;;7.10;5.28;;;12.40;99.90;;;;;;5093945;28;20105;-49
2021/10/13 12:16:02;;;;;;;24.63;14.13;;;12.30;99.90;;;;;;5095819;28;20035;-49
2021/10/13 12:18:32;;;;;;;6.05;4.05;;;12.30;99.90;;;;;;5091626;28;20162;-49
2021/10/13 12:21:00;;;;;;;13.15;6.95;;;11.80;99.90;;;;;;5090756;28;20020;-47
2021/10/13 12:23:27;;;;;;;12.52;7.75;;;11.70;99.90;;;;;;5094783;28;20028;-47
2021/10/13 12:25:53;;;;;;;8.38;4.95;;;11.70;99.90;;;;;;5097233;28;20043;-45
2021/10/13 12:28:27;;;;;;;22.48;11.45;;;11.50;99.90;;;;;;5091237;28;20833;-50
2021/10/13 12:30:58;;;;;;;6.53;3.92;;;11.50;99.90;;;;;;5097404;28;20023;-48
2021/10/13 12:33:24;;;;;;;10.32;6.80;;;11.40;99.90;;;;;;5093669;28;20028;-48
2021/10/13 12:35:50;;;;;;;9.80;6.13;;;11.40;99.90;;;;;;5093181;28;20086;-42
2021/10/13 12:38:20;;;;;;;10.30;7.30;;;11.60;99.90;;;;;;5093049;28;20140;-45
2021/10/13 12:41:06;;;;;;;29.63;13.05;;;11.70;99.90;;;;;;5096341;28;20040;-49
2021/10/13 12:43:43;;;;;;;9.40;5.65;;;11.90;99.90;;;;;;5093171;28;20026;-49
2021/10/13 12:46:24;;;;;;;13.23;6.25;;;11.80;99.90;;;;;;5067266;28;20131;-49
2021/10/13 12:48:50;;;;;;;18.88;8.85;;;11.70;99.90;;;;;;5057095;28;20479;-48
2021/10/13 12:51:17;;;;;;;8.15;4.78;;;11.70;99.90;;;;;;5063222;28;20029;-45
2021/10/13 12:53:44;;;;;;;8.63;4.50;;;11.70;99.90;;;;;;5022947;28;20179;-49
2021/10/13 12:56:11;;;;;;;5.63;4.15;;;11.80;99.90;;;;;;5035762;28;20056;-46
2021/10/13 12:58:36;;;;;;;8.80;5.47;;;11.70;99.90;;;;;;5045070;28;20037;-47
2021/10/13 13:01:03;;;;;;;20.88;9.55;;;11.80;99.90;;;;;;5056775;28;20020;-47
2021/10/13 13:03:29;;;;;;;17.60;9.20;;;11.90;99.90;;;;;;5051672;28;20423;-48
2021/10/13 13:05:55;;;;;;;11.52;7.88;;;12.00;99.90;;;;;;5032893;28;20037;-46
2021/10/13 13:08:23;;;;;;;18.85;9.20;;;11.90;99.90;;;;;;5055699;28;20051;-46
2021/10/13 13:10:50;;;;;;;9.00;5.18;;;11.80;99.90;;;;;;5056738;28;20716;-47
2021/10/13 13:13:16;;;;;;;19.05;10.88;;;11.70;99.90;;;;;;5057618;28;20493;-45
2021/10/13 13:15:44;;;;;;;9.35;6.45;;;11.60;99.90;;;;;;5058301;28;20048;-47
2021/10/13 13:18:10;;;;;;;9.50;6.30;;;11.80;99.90;;;;;;5057923;28;20051;-45
2021/10/13 13:20:37;;;;;;;7.72;6.10;;;11.70;99.90;;;;;;5055913;28;20071;-46
2021/10/13 13:23:03;;;;;;;8.65;7.03;;;11.90;99.90;;;;;;5052217;28;20449;-44
2021/10/13 13:25:29;;;;;;;9.68;7.40;;;11.90;99.90;;;;;;5055940;28;20397;-44
2021/10/13 13:27:55;;;;;;;8.35;6.00;;;12.00;99.90;;;;;;5056330;28;20036;-46
2021/10/13 13:30:21;;;;;;;7.22;5.47;;;12.00;99.90;;;;;;5054666;28;20037;-43
2021/10/13 13:32:47;;;;;;;9.27;6.93;;;12.00;99.90;;;;;;5061351;28;20033;-47
2021/10/13 13:35:13;;;;;;;9.30;6.78;;;12.00;99.90;;;;;;5057977;28;20036;-46
2021/10/13 13:37:39;;;;;;;7.50;6.45;;;12.10;99.90;;;;;;5057462;28;20071;-48
2021/10/13 13:40:11;;;;;;;20.67;14.05;;;12.10;99.90;;;;;;5038960;28;20032;-46
2021/10/13 13:42:39;;;;;;;6.05;3.88;;;12.10;99.90;;;;;;5036990;28;20040;-47
2021/10/13 13:45:06;;;;;;;24.17;15.32;;;11.80;99.90;;;;;;5049905;28;20059;-46
2021/10/13 13:47:33;;;;;;;9.50;6.22;;;11.90;99.90;;;;;;5054341;28;20028;-44
2021/10/13 14:03:50;;;;;;;6.47;5.05;;;15.10;99.90;;;;;;5106899;27;20422;-48
2021/10/13 14:06:16;;;;;;;8.52;5.80;;;11.50;99.90;;;;;;5089747;28;20031;-47
2021/10/13 14:08:43;;;;;;;16.05;10.48;;;11.60;99.90;;;;;;5052844;28;20131;-47
2021/10/13 14:11:08;;;;;;;10.55;7.22;;;11.50;99.90;;;;;;5089601;28;20024;-48
2021/10/13 14:13:34;;;;;;;6.72;3.95;;;11.30;99.90;;;;;;5088988;28;20525;-48
2021/10/13 14:16:00;;;;;;;8.48;4.10;;;11.20;99.90;;;;;;5086003;28;20067;-47
2021/10/13 14:18:26;;;;;;;6.47;4.78;;;11.00;99.90;;;;;;5051586;28;20387;-49
2021/10/13 14:20:51;;;;;;;8.55;5.82;;;11.00;99.90;;;;;;5086070;28;20024;-46
2021/10/13 14:23:17;;;;;;;7.03;5.28;;;11.00;99.90;;;;;;5049100;28;20440;-48